sensor_id;sensor_type;location;lat;lon;timestamp;P1;durP1;ratioP1;P2;durP2;ratioP2
49223;SDS011;35050;51.316;5.994;2022-09-01T00:01:13;0.50;;;0.50;;
49223;SDS011;35050;51.316;5.994;2022-09-01T00:03:45;0.80;;;0.50;;
49223;SDS011;35050;51.316;5.994;2022-09-01T00:06:13;0.90;;;0.63;;
49223;SDS011;35050;51.316;5.994;2022-09-01T00:08:45;0.50;;;0.50;;
49223;SDS011;35050;51.316;5.994;2022-09-01T00:11:11;0.60;;;0.60;;
49223;SDS011;35050;51.316;5.994;2022-09-01T00:13:37;1.60;;;0.50;;
49223;SDS011;35050;51.316;5.994;2022-09-01T00:16:02;0.80;;;0.77;;
49223;SDS011;35050;51.316;5.994;2022-09-01T00:18:29;0.52;;;0.45;;
49223;SDS011;35050;51.316;5.994;2022-09-01T00:20:56;0.43;;;0.43;;
49223;SDS011;35050;51.316;5.994;2022-09-01T00:23:24;0.65;;;0.50;;
49223;SDS011;35050;51.316;5.994;2022-09-01T00:25:51;1.20;;;0.70;;
49223;SDS011;35050;51.316;5.994;2022-09-01T00:28:19;0.75;;;0.50;;
49223;SDS011;35050;51.316;5.994;2022-09-01T00:30:44;0.50;;;0.50;;
49223;SDS011;35050;51.316;5.994;2022-09-01T00:33:10;0.68;;;0.60;;
49223;SDS011;35050;51.316;5.994;2022-09-01T00:35:37;0.40;;;0.40;;
49223;SDS011;35050;51.316;5.994;2022-09-01T00:38:03;2.15;;;0.50;;
49223;SDS011;35050;51.316;5.994;2022-09-01T00:40:28;0.93;;;0.47;;
49223;SDS011;35050;51.316;5.994;2022-09-01T00:42:55;0.50;;;0.50;;
49223;SDS011;35050;51.316;5.994;2022-09-01T00:45:20;1.00;;;0.70;;
49223;SDS011;35050;51.316;5.994;2022-09-01T00:47:47;0.85;;;0.45;;
49223;SDS011;35050;51.316;5.994;2022-09-01T00:50:14;1.23;;;0.55;;
49223;SDS011;35050;51.316;5.994;2022-09-01T00:52:47;0.50;;;0.50;;
49223;SDS011;35050;51.316;5.994;2022-09-01T00:55:17;0.80;;;0.47;;
49223;SDS011;35050;51.316;5.994;2022-09-01T00:57:47;0.80;;;0.50;;
49223;SDS011;35050;51.316;5.994;2022-09-01T01:00:15;0.57;;;0.57;;
49223;SDS011;35050;51.316;5.994;2022-09-01T01:02:47;1.10;;;0.60;;
49223;SDS011;35050;51.316;5.994;2022-09-01T01:05:20;0.55;;;0.50;;
49223;SDS011;35050;51.316;5.994;2022-09-01T01:08:03;0.50;;;0.50;;
49223;SDS011;35050;51.316;5.994;2022-09-01T01:10:31;0.93;;;0.50;;
49223;SDS011;35050;51.316;5.994;2022-09-01T01:13:00;1.25;;;0.50;;
49223;SDS011;35050;51.316;5.994;2022-09-01T01:15:27;0.45;;;0.45;;
49223;SDS011;35050;51.316;5.994;2022-09-01T01:17:53;0.85;;;0.52;;
49223;SDS011;35050;51.316;5.994;2022-09-01T01:20:20;0.50;;;0.50;;
49223;SDS011;35050;51.316;5.994;2022-09-01T01:23:14;0.60;;;0.50;;
49223;SDS011;35050;51.316;5.994;2022-09-01T01:26:01;0.80;;;0.50;;
49223;SDS011;35050;51.316;5.994;2022-09-01T01:30:59;0.50;;;0.50;;
49223;SDS011;35050;51.316;5.994;2022-09-01T01:33:33;0.40;;;0.40;;
49223;SDS011;35050;51.316;5.994;2022-09-01T01:36:05;0.90;;;0.55;;
49223;SDS011;35050;51.316;5.994;2022-09-01T01:39:08;0.73;;;0.50;;
49223;SDS011;35050;51.316;5.994;2022-09-01T01:41:39;0.40;;;0.38;;
49223;SDS011;35050;51.316;5.994;2022-09-01T01:44:10;0.65;;;0.45;;
49223;SDS011;35050;51.316;5.994;2022-09-01T01:46:40;0.40;;;0.30;;
49223;SDS011;35050;51.316;5.994;2022-09-01T01:49:08;1.38;;;0.70;;
49223;SDS011;35050;51.316;5.994;2022-09-01T01:51:37;0.40;;;0.40;;
49223;SDS011;35050;51.316;5.994;2022-09-01T01:54:04;1.13;;;0.40;;
49223;SDS011;35050;51.316;5.994;2022-09-01T01:56:31;1.48;;;0.50;;
49223;SDS011;35050;51.316;5.994;2022-09-01T01:59:00;0.63;;;0.50;;
49223;SDS011;35050;51.316;5.994;2022-09-01T02:01:27;0.77;;;0.40;;
49223;SDS011;35050;51.316;5.994;2022-09-01T02:03:56;0.57;;;0.45;;
49223;SDS011;35050;51.316;5.994;2022-09-01T02:06:23;1.05;;;0.35;;
49223;SDS011;35050;51.316;5.994;2022-09-01T02:08:51;0.80;;;0.40;;
49223;SDS011;35050;51.316;5.994;2022-09-01T02:11:21;0.60;;;0.40;;
49223;SDS011;35050;51.316;5.994;2022-09-01T02:13:50;0.82;;;0.50;;
49223;SDS011;35050;51.316;5.994;2022-09-01T02:16:20;1.00;;;0.50;;
49223;SDS011;35050;51.316;5.994;2022-09-01T02:18:47;1.60;;;0.68;;
49223;SDS011;35050;51.316;5.994;2022-09-01T02:21:14;0.85;;;0.47;;
49223;SDS011;35050;51.316;5.994;2022-09-01T02:23:57;0.98;;;0.70;;
49223;SDS011;35050;51.316;5.994;2022-09-01T02:26:36;2.15;;;0.50;;
49223;SDS011;35050;51.316;5.994;2022-09-01T02:29:06;0.60;;;0.50;;
49223;SDS011;35050;51.316;5.994;2022-09-01T02:31:34;1.00;;;0.47;;
49223;SDS011;35050;51.316;5.994;2022-09-01T02:34:04;0.90;;;0.50;;
49223;SDS011;35050;51.316;5.994;2022-09-01T02:36:34;0.65;;;0.50;;
49223;SDS011;35050;51.316;5.994;2022-09-01T02:39:06;0.60;;;0.60;;
49223;SDS011;35050;51.316;5.994;2022-09-01T02:41:32;0.30;;;0.30;;
49223;SDS011;35050;51.316;5.994;2022-09-01T02:43:58;0.55;;;0.40;;
49223;SDS011;35050;51.316;5.994;2022-09-01T02:46:26;0.35;;;0.35;;
49223;SDS011;35050;51.316;5.994;2022-09-01T02:48:54;0.40;;;0.40;;
49223;SDS011;35050;51.316;5.994;2022-09-01T02:51:21;0.93;;;0.60;;
49223;SDS011;35050;51.316;5.994;2022-09-01T02:53:49;0.68;;;0.60;;
49223;SDS011;35050;51.316;5.994;2022-09-01T02:56:16;2.35;;;0.52;;
49223;SDS011;35050;51.316;5.994;2022-09-01T02:58:46;0.98;;;0.47;;
49223;SDS011;35050;51.316;5.994;2022-09-01T03:01:19;0.40;;;0.40;;
49223;SDS011;35050;51.316;5.994;2022-09-01T03:03:49;0.82;;;0.70;;
49223;SDS011;35050;51.316;5.994;2022-09-01T03:06:19;0.50;;;0.50;;
49223;SDS011;35050;51.316;5.994;2022-09-01T03:08:48;0.68;;;0.40;;
49223;SDS011;35050;51.316;5.994;2022-09-01T03:11:18;1.52;;;0.40;;
49223;SDS011;35050;51.316;5.994;2022-09-01T03:13:44;1.10;;;0.75;;
49223;SDS011;35050;51.316;5.994;2022-09-01T03:16:10;0.75;;;0.60;;
49223;SDS011;35050;51.316;5.994;2022-09-01T03:18:36;0.40;;;0.40;;
49223;SDS011;35050;51.316;5.994;2022-09-01T03:21:03;0.40;;;0.40;;
49223;SDS011;35050;51.316;5.994;2022-09-01T03:23:30;0.60;;;0.55;;
49223;SDS011;35050;51.316;5.994;2022-09-01T03:25:58;0.40;;;0.40;;
49223;SDS011;35050;51.316;5.994;2022-09-01T03:28:25;0.38;;;0.35;;
49223;SDS011;35050;51.316;5.994;2022-09-01T03:30:52;0.65;;;0.55;;
49223;SDS011;35050;51.316;5.994;2022-09-01T03:33:20;0.55;;;0.50;;
49223;SDS011;35050;51.316;5.994;2022-09-01T03:35:47;0.50;;;0.50;;
49223;SDS011;35050;51.316;5.994;2022-09-01T03:38:13;4.75;;;0.60;;
49223;SDS011;35050;51.316;5.994;2022-09-01T03:40:44;1.30;;;0.60;;
49223;SDS011;35050;51.316;5.994;2022-09-01T03:43:11;0.40;;;0.40;;
49223;SDS011;35050;51.316;5.994;2022-09-01T03:45:38;0.40;;;0.40;;
49223;SDS011;35050;51.316;5.994;2022-09-01T03:48:04;0.68;;;0.60;;
49223;SDS011;35050;51.316;5.994;2022-09-01T03:50:33;0.80;;;0.70;;
49223;SDS011;35050;51.316;5.994;2022-09-01T03:53:15;0.43;;;0.43;;
49223;SDS011;35050;51.316;5.994;2022-09-01T03:55:45;0.73;;;0.50;;
49223;SDS011;35050;51.316;5.994;2022-09-01T03:58:12;0.75;;;0.40;;
49223;SDS011;35050;51.316;5.994;2022-09-01T04:00:43;0.38;;;0.38;;
49223;SDS011;35050;51.316;5.994;2022-09-01T04:03:14;0.50;;;0.50;;
49223;SDS011;35050;51.316;5.994;2022-09-01T04:05:46;0.80;;;0.70;;
49223;SDS011;35050;51.316;5.994;2022-09-01T04:08:13;0.57;;;0.50;;
49223;SDS011;35050;51.316;5.994;2022-09-01T04:10:44;0.57;;;0.50;;
49223;SDS011;35050;51.316;5.994;2022-09-01T04:13:23;0.60;;;0.38;;
49223;SDS011;35050;51.316;5.994;2022-09-01T04:15:54;0.63;;;0.60;;
49223;SDS011;35050;51.316;5.994;2022-09-01T04:18:21;0.98;;;0.55;;
49223;SDS011;35050;51.316;5.994;2022-09-01T04:20:51;1.00;;;0.52;;
49223;SDS011;35050;51.316;5.994;2022-09-01T04:26:01;1.20;;;0.50;;
49223;SDS011;35050;51.316;5.994;2022-09-01T04:28:34;0.55;;;0.52;;
49223;SDS011;35050;51.316;5.994;2022-09-01T04:31:06;1.27;;;0.43;;
49223;SDS011;35050;51.316;5.994;2022-09-01T04:33:34;0.68;;;0.65;;
49223;SDS011;35050;51.316;5.994;2022-09-01T04:36:04;0.77;;;0.55;;
49223;SDS011;35050;51.316;5.994;2022-09-01T04:38:31;0.60;;;0.50;;
49223;SDS011;35050;51.316;5.994;2022-09-01T04:41:01;0.43;;;0.43;;
49223;SDS011;35050;51.316;5.994;2022-09-01T04:43:30;0.80;;;0.47;;
49223;SDS011;35050;51.316;5.994;2022-09-01T04:45:57;0.50;;;0.50;;
49223;SDS011;35050;51.316;5.994;2022-09-01T04:48:23;1.05;;;0.70;;
49223;SDS011;35050;51.316;5.994;2022-09-01T04:50:49;0.98;;;0.68;;
49223;SDS011;35050;51.316;5.994;2022-09-01T04:53:17;1.50;;;0.57;;
49223;SDS011;35050;51.316;5.994;2022-09-01T04:55:43;1.15;;;0.70;;
49223;SDS011;35050;51.316;5.994;2022-09-01T04:58:11;1.27;;;0.70;;
49223;SDS011;35050;51.316;5.994;2022-09-01T05:00:41;0.75;;;0.50;;
49223;SDS011;35050;51.316;5.994;2022-09-01T05:03:09;0.98;;;0.50;;
49223;SDS011;35050;51.316;5.994;2022-09-01T05:05:44;0.80;;;0.60;;
49223;SDS011;35050;51.316;5.994;2022-09-01T05:08:14;0.52;;;0.52;;
49223;SDS011;35050;51.316;5.994;2022-09-01T05:10:48;0.80;;;0.70;;
49223;SDS011;35050;51.316;5.994;2022-09-01T05:13:16;0.60;;;0.47;;
49223;SDS011;35050;51.316;5.994;2022-09-01T05:15:44;0.50;;;0.50;;
49223;SDS011;35050;51.316;5.994;2022-09-01T05:18:12;0.95;;;0.68;;
49223;SDS011;35050;51.316;5.994;2022-09-01T05:20:38;0.57;;;0.52;;
49223;SDS011;35050;51.316;5.994;2022-09-01T05:23:06;1.35;;;0.70;;
49223;SDS011;35050;51.316;5.994;2022-09-01T05:25:40;1.23;;;1.00;;
49223;SDS011;35050;51.316;5.994;2022-09-01T05:28:08;0.82;;;0.70;;
49223;SDS011;35050;51.316;5.994;2022-09-01T05:30:37;7.85;;;0.73;;
49223;SDS011;35050;51.316;5.994;2022-09-01T05:33:04;1.13;;;0.70;;
49223;SDS011;35050;51.316;5.994;2022-09-01T05:35:37;0.80;;;0.70;;
49223;SDS011;35050;51.316;5.994;2022-09-01T05:38:07;2.25;;;1.00;;
49223;SDS011;35050;51.316;5.994;2022-09-01T05:40:36;1.25;;;0.68;;
49223;SDS011;35050;51.316;5.994;2022-09-01T05:43:10;0.77;;;0.77;;
49223;SDS011;35050;51.316;5.994;2022-09-01T05:45:38;0.95;;;0.85;;
49223;SDS011;35050;51.316;5.994;2022-09-01T05:48:08;1.65;;;1.00;;
49223;SDS011;35050;51.316;5.994;2022-09-01T05:50:38;1.90;;;0.82;;
49223;SDS011;35050;51.316;5.994;2022-09-01T05:53:07;0.60;;;0.60;;
49223;SDS011;35050;51.316;5.994;2022-09-01T05:55:39;1.15;;;0.80;;
49223;SDS011;35050;51.316;5.994;2022-09-01T05:58:08;3.40;;;1.20;;
49223;SDS011;35050;51.316;5.994;2022-09-01T06:00:37;1.58;;;1.20;;
49223;SDS011;35050;51.316;5.994;2022-09-01T06:03:04;2.65;;;1.38;;
49223;SDS011;35050;51.316;5.994;2022-09-01T06:05:33;2.38;;;1.00;;
49223;SDS011;35050;51.316;5.994;2022-09-01T06:08:03;1.35;;;0.82;;
49223;SDS011;35050;51.316;5.994;2022-09-01T06:10:30;4.40;;;1.02;;
49223;SDS011;35050;51.316;5.994;2022-09-01T06:12:56;3.42;;;1.20;;
49223;SDS011;35050;51.316;5.994;2022-09-01T06:15:27;2.80;;;1.00;;
49223;SDS011;35050;51.316;5.994;2022-09-01T06:17:56;2.50;;;1.10;;
49223;SDS011;35050;51.316;5.994;2022-09-01T06:20:23;2.67;;;0.98;;
49223;SDS011;35050;51.316;5.994;2022-09-01T06:22:50;1.95;;;1.10;;
49223;SDS011;35050;51.316;5.994;2022-09-01T06:25:17;2.47;;;1.20;;
49223;SDS011;35050;51.316;5.994;2022-09-01T06:27:44;1.90;;;1.15;;
49223;SDS011;35050;51.316;5.994;2022-09-01T06:30:12;1.30;;;1.00;;
49223;SDS011;35050;51.316;5.994;2022-09-01T06:32:43;2.88;;;1.60;;
49223;SDS011;35050;51.316;5.994;2022-09-01T06:35:12;2.60;;;1.00;;
49223;SDS011;35050;51.316;5.994;2022-09-01T06:37:43;1.35;;;1.10;;
49223;SDS011;35050;51.316;5.994;2022-09-01T06:40:10;2.13;;;1.10;;
49223;SDS011;35050;51.316;5.994;2022-09-01T06:42:51;1.52;;;1.20;;
49223;SDS011;35050;51.316;5.994;2022-09-01T06:45:18;1.08;;;0.93;;
49223;SDS011;35050;51.316;5.994;2022-09-01T06:47:46;3.50;;;1.42;;
49223;SDS011;35050;51.316;5.994;2022-09-01T06:50:15;4.05;;;1.20;;
49223;SDS011;35050;51.316;5.994;2022-09-01T06:52:43;3.95;;;1.17;;
49223;SDS011;35050;51.316;5.994;2022-09-01T06:55:10;2.80;;;1.30;;
49223;SDS011;35050;51.316;5.994;2022-09-01T06:57:38;4.72;;;1.13;;
49223;SDS011;35050;51.316;5.994;2022-09-01T07:00:05;3.47;;;1.42;;
49223;SDS011;35050;51.316;5.994;2022-09-01T07:02:52;2.00;;;1.20;;
49223;SDS011;35050;51.316;5.994;2022-09-01T07:05:21;2.05;;;1.15;;
49223;SDS011;35050;51.316;5.994;2022-09-01T07:07:48;1.50;;;1.08;;
49223;SDS011;35050;51.316;5.994;2022-09-01T07:10:22;2.20;;;1.08;;
49223;SDS011;35050;51.316;5.994;2022-09-01T07:12:53;2.13;;;1.27;;
49223;SDS011;35050;51.316;5.994;2022-09-01T07:15:21;2.53;;;1.47;;
49223;SDS011;35050;51.316;5.994;2022-09-01T07:17:49;1.50;;;1.10;;
49223;SDS011;35050;51.316;5.994;2022-09-01T07:20:17;1.50;;;1.20;;
49223;SDS011;35050;51.316;5.994;2022-09-01T07:22:45;1.55;;;1.10;;
49223;SDS011;35050;51.316;5.994;2022-09-01T07:25:20;1.50;;;1.00;;
49223;SDS011;35050;51.316;5.994;2022-09-01T07:27:46;2.60;;;0.90;;
49223;SDS011;35050;51.316;5.994;2022-09-01T07:30:18;2.92;;;1.30;;
49223;SDS011;35050;51.316;5.994;2022-09-01T07:32:46;1.65;;;0.85;;
49223;SDS011;35050;51.316;5.994;2022-09-01T07:35:14;2.30;;;1.00;;
49223;SDS011;35050;51.316;5.994;2022-09-01T07:37:44;1.92;;;1.05;;
49223;SDS011;35050;51.316;5.994;2022-09-01T07:40:11;1.35;;;1.00;;
49223;SDS011;35050;51.316;5.994;2022-09-01T07:45:12;1.85;;;1.15;;
49223;SDS011;35050;51.316;5.994;2022-09-01T07:47:41;2.38;;;1.35;;
49223;SDS011;35050;51.316;5.994;2022-09-01T07:50:09;3.20;;;1.40;;
49223;SDS011;35050;51.316;5.994;2022-09-01T07:52:39;1.35;;;0.93;;
49223;SDS011;35050;51.316;5.994;2022-09-01T07:55:13;1.92;;;1.13;;
49223;SDS011;35050;51.316;5.994;2022-09-01T07:57:41;2.22;;;1.02;;
49223;SDS011;35050;51.316;5.994;2022-09-01T08:00:10;1.30;;;1.13;;
49223;SDS011;35050;51.316;5.994;2022-09-01T08:02:40;2.58;;;1.38;;
49223;SDS011;35050;51.316;5.994;2022-09-01T08:05:09;1.95;;;1.23;;
49223;SDS011;35050;51.316;5.994;2022-09-01T08:07:37;1.48;;;1.00;;
49223;SDS011;35050;51.316;5.994;2022-09-01T08:10:04;3.42;;;1.52;;
49223;SDS011;35050;51.316;5.994;2022-09-01T08:12:32;1.90;;;1.10;;
49223;SDS011;35050;51.316;5.994;2022-09-01T08:15:00;3.03;;;1.50;;
49223;SDS011;35050;51.316;5.994;2022-09-01T08:17:26;1.83;;;1.17;;
49223;SDS011;35050;51.316;5.994;2022-09-01T08:19:52;2.55;;;1.25;;
49223;SDS011;35050;51.316;5.994;2022-09-01T08:22:18;6.47;;;1.33;;
49223;SDS011;35050;51.316;5.994;2022-09-01T08:24:48;1.88;;;1.02;;
49223;SDS011;35050;51.316;5.994;2022-09-01T08:27:13;3.25;;;1.20;;
49223;SDS011;35050;51.316;5.994;2022-09-01T08:29:39;1.75;;;1.10;;
49223;SDS011;35050;51.316;5.994;2022-09-01T08:32:05;1.52;;;1.30;;
49223;SDS011;35050;51.316;5.994;2022-09-01T08:34:32;3.53;;;1.42;;
49223;SDS011;35050;51.316;5.994;2022-09-01T08:36:58;1.40;;;0.90;;
49223;SDS011;35050;51.316;5.994;2022-09-01T08:39:23;2.28;;;1.20;;
49223;SDS011;35050;51.316;5.994;2022-09-01T08:47:11;2.10;;;1.08;;
49223;SDS011;35050;51.316;5.994;2022-09-01T08:49:40;1.95;;;1.15;;
49223;SDS011;35050;51.316;5.994;2022-09-01T08:52:18;2.65;;;0.95;;
49223;SDS011;35050;51.316;5.994;2022-09-01T08:57:29;2.60;;;1.00;;
49223;SDS011;35050;51.316;5.994;2022-09-01T09:00:01;2.25;;;1.15;;
49223;SDS011;35050;51.316;5.994;2022-09-01T09:13:34;2.40;;;1.10;;
49223;SDS011;35050;51.316;5.994;2022-09-01T09:21:44;2.65;;;1.40;;
49223;SDS011;35050;51.316;5.994;2022-09-01T09:27:27;2.90;;;1.30;;
49223;SDS011;35050;51.316;5.994;2022-09-01T09:30:39;4.20;;;1.42;;
49223;SDS011;35050;51.316;5.994;2022-09-01T09:32:55;2.50;;;1.08;;
49223;SDS011;35050;51.316;5.994;2022-09-01T09:35:33;1.65;;;0.90;;
49223;SDS011;35050;51.316;5.994;2022-09-01T09:43:37;1.95;;;0.95;;
49223;SDS011;35050;51.316;5.994;2022-09-01T09:49:12;3.65;;;1.08;;
49223;SDS011;35050;51.316;5.994;2022-09-01T09:51:40;1.85;;;0.95;;
49223;SDS011;35050;51.316;5.994;2022-09-01T09:56:44;1.23;;;0.88;;
49223;SDS011;35050;51.316;5.994;2022-09-01T09:59:45;1.25;;;0.90;;
49223;SDS011;35050;51.316;5.994;2022-09-01T10:04:57;3.35;;;1.45;;
49223;SDS011;35050;51.316;5.994;2022-09-01T10:07:43;1.13;;;0.70;;
49223;SDS011;35050;51.316;5.994;2022-09-01T10:13:18;3.03;;;0.93;;
49223;SDS011;35050;51.316;5.994;2022-09-01T10:15:47;1.20;;;0.90;;
49223;SDS011;35050;51.316;5.994;2022-09-01T10:18:21;1.58;;;1.00;;
49223;SDS011;35050;51.316;5.994;2022-09-01T10:20:56;1.20;;;0.63;;
49223;SDS011;35050;51.316;5.994;2022-09-01T10:23:25;1.15;;;0.90;;
49223;SDS011;35050;51.316;5.994;2022-09-01T10:25:54;1.00;;;0.90;;
49223;SDS011;35050;51.316;5.994;2022-09-01T10:30:56;1.25;;;0.73;;
49223;SDS011;35050;51.316;5.994;2022-09-01T10:33:23;1.02;;;0.77;;
49223;SDS011;35050;51.316;5.994;2022-09-01T10:35:52;3.75;;;0.95;;
49223;SDS011;35050;51.316;5.994;2022-09-01T10:38:26;1.33;;;0.80;;
49223;SDS011;35050;51.316;5.994;2022-09-01T10:40:54;1.70;;;1.08;;
49223;SDS011;35050;51.316;5.994;2022-09-01T10:46:41;0.93;;;0.65;;
49223;SDS011;35050;51.316;5.994;2022-09-01T10:48:54;0.88;;;0.65;;
49223;SDS011;35050;51.316;5.994;2022-09-01T10:53:49;1.83;;;1.15;;
49223;SDS011;35050;51.316;5.994;2022-09-01T10:59:05;1.13;;;0.60;;
49223;SDS011;35050;51.316;5.994;2022-09-01T11:04:14;0.98;;;0.73;;
49223;SDS011;35050;51.316;5.994;2022-09-01T11:09:24;1.17;;;0.60;;
49223;SDS011;35050;51.316;5.994;2022-09-01T11:14:54;0.80;;;0.60;;
49223;SDS011;35050;51.316;5.994;2022-09-01T11:17:38;0.60;;;0.60;;
49223;SDS011;35050;51.316;5.994;2022-09-01T11:23:02;0.82;;;0.70;;
49223;SDS011;35050;51.316;5.994;2022-09-01T11:31:34;0.75;;;0.75;;
49223;SDS011;35050;51.316;5.994;2022-09-01T11:39:07;1.05;;;0.70;;
49223;SDS011;35050;51.316;5.994;2022-09-01T11:42:23;2.55;;;0.80;;
49223;SDS011;35050;51.316;5.994;2022-09-01T11:45:13;1.27;;;0.68;;
49223;SDS011;35050;51.316;5.994;2022-09-01T11:47:46;0.70;;;0.70;;
49223;SDS011;35050;51.316;5.994;2022-09-01T11:50:41;1.63;;;0.70;;
49223;SDS011;35050;51.316;5.994;2022-09-01T11:53:14;0.95;;;0.82;;
49223;SDS011;35050;51.316;5.994;2022-09-01T11:55:47;0.80;;;0.80;;
49223;SDS011;35050;51.316;5.994;2022-09-01T12:00:56;1.52;;;0.70;;
49223;SDS011;35050;51.316;5.994;2022-09-01T12:03:36;1.25;;;0.68;;
49223;SDS011;35050;51.316;5.994;2022-09-01T12:06:03;0.88;;;0.60;;
49223;SDS011;35050;51.316;5.994;2022-09-01T12:08:31;0.65;;;0.57;;
49223;SDS011;35050;51.316;5.994;2022-09-01T12:11:33;0.60;;;0.60;;
49223;SDS011;35050;51.316;5.994;2022-09-01T12:16:26;0.95;;;0.80;;
49223;SDS011;35050;51.316;5.994;2022-09-01T12:18:54;1.38;;;0.80;;
49223;SDS011;35050;51.316;5.994;2022-09-01T12:24:21;1.75;;;0.90;;
49223;SDS011;35050;51.316;5.994;2022-09-01T12:26:52;0.90;;;0.60;;
49223;SDS011;35050;51.316;5.994;2022-09-01T12:29:20;0.98;;;0.60;;
49223;SDS011;35050;51.316;5.994;2022-09-01T12:31:47;1.67;;;0.70;;
49223;SDS011;35050;51.316;5.994;2022-09-01T12:34:35;0.75;;;0.70;;
49223;SDS011;35050;51.316;5.994;2022-09-01T12:37:20;1.10;;;0.50;;
49223;SDS011;35050;51.316;5.994;2022-09-01T12:39:49;1.17;;;0.70;;
49223;SDS011;35050;51.316;5.994;2022-09-01T12:45:01;0.82;;;0.70;;
49223;SDS011;35050;51.316;5.994;2022-09-01T12:50:43;0.63;;;0.60;;
49223;SDS011;35050;51.316;5.994;2022-09-01T12:53:00;0.80;;;0.80;;
49223;SDS011;35050;51.316;5.994;2022-09-01T12:55:28;2.50;;;0.95;;
49223;SDS011;35050;51.316;5.994;2022-09-01T12:58:00;1.02;;;0.70;;
49223;SDS011;35050;51.316;5.994;2022-09-01T13:00:34;1.20;;;0.88;;
49223;SDS011;35050;51.316;5.994;2022-09-01T13:03:17;1.55;;;0.90;;
49223;SDS011;35050;51.316;5.994;2022-09-01T13:05:52;1.58;;;1.13;;
49223;SDS011;35050;51.316;5.994;2022-09-01T13:08:20;1.27;;;1.10;;
49223;SDS011;35050;51.316;5.994;2022-09-01T13:10:57;0.70;;;0.70;;
49223;SDS011;35050;51.316;5.994;2022-09-01T13:13:26;1.10;;;0.70;;
49223;SDS011;35050;51.316;5.994;2022-09-01T13:15:54;1.05;;;0.90;;
49223;SDS011;35050;51.316;5.994;2022-09-01T13:18:26;1.40;;;1.30;;
49223;SDS011;35050;51.316;5.994;2022-09-01T13:20:52;2.33;;;1.50;;
49223;SDS011;35050;51.316;5.994;2022-09-01T13:23:20;2.85;;;2.10;;
49223;SDS011;35050;51.316;5.994;2022-09-01T13:25:46;3.83;;;2.78;;
49223;SDS011;35050;51.316;5.994;2022-09-01T13:28:12;3.00;;;2.50;;
49223;SDS011;35050;51.316;5.994;2022-09-01T13:30:39;4.03;;;2.70;;
49223;SDS011;35050;51.316;5.994;2022-09-01T13:33:05;4.32;;;2.85;;
49223;SDS011;35050;51.316;5.994;2022-09-01T13:35:31;3.63;;;2.47;;
49223;SDS011;35050;51.316;5.994;2022-09-01T13:37:57;1.70;;;1.60;;
49223;SDS011;35050;51.316;5.994;2022-09-01T13:40:23;3.83;;;2.78;;
49223;SDS011;35050;51.316;5.994;2022-09-01T13:42:49;7.25;;;4.72;;
49223;SDS011;35050;51.316;5.994;2022-09-01T13:45:17;7.18;;;3.50;;
49223;SDS011;35050;51.316;5.994;2022-09-01T13:47:45;2.78;;;2.20;;
49223;SDS011;35050;51.316;5.994;2022-09-01T13:50:12;1.38;;;1.25;;
49223;SDS011;35050;51.316;5.994;2022-09-01T13:52:40;1.00;;;0.90;;
49223;SDS011;35050;51.316;5.994;2022-09-01T13:55:12;2.00;;;0.80;;
49223;SDS011;35050;51.316;5.994;2022-09-01T13:57:39;1.65;;;0.80;;
49223;SDS011;35050;51.316;5.994;2022-09-01T14:00:06;1.40;;;0.70;;
49223;SDS011;35050;51.316;5.994;2022-09-01T14:02:39;0.47;;;0.47;;
49223;SDS011;35050;51.316;5.994;2022-09-01T14:05:13;0.65;;;0.63;;
49223;SDS011;35050;51.316;5.994;2022-09-01T14:07:39;1.95;;;0.90;;
49223;SDS011;35050;51.316;5.994;2022-09-01T14:10:05;0.60;;;0.60;;
49223;SDS011;35050;51.316;5.994;2022-09-01T14:12:31;0.65;;;0.55;;
49223;SDS011;35050;51.316;5.994;2022-09-01T14:14:57;1.38;;;0.80;;
49223;SDS011;35050;51.316;5.994;2022-09-01T14:17:22;0.82;;;0.70;;
49223;SDS011;35050;51.316;5.994;2022-09-01T14:19:49;1.58;;;0.73;;
49223;SDS011;35050;51.316;5.994;2022-09-01T14:22:14;1.00;;;0.70;;
49223;SDS011;35050;51.316;5.994;2022-09-01T14:24:40;0.52;;;0.52;;
49223;SDS011;35050;51.316;5.994;2022-09-01T14:27:06;2.13;;;0.82;;
49223;SDS011;35050;51.316;5.994;2022-09-01T14:29:31;1.50;;;0.65;;
49223;SDS011;35050;51.316;5.994;2022-09-01T14:31:57;1.65;;;0.98;;
49223;SDS011;35050;51.316;5.994;2022-09-01T14:34:23;1.20;;;1.10;;
49223;SDS011;35050;51.316;5.994;2022-09-01T14:36:49;2.05;;;1.00;;
49223;SDS011;35050;51.316;5.994;2022-09-01T14:39:18;1.00;;;0.90;;
49223;SDS011;35050;51.316;5.994;2022-09-01T14:41:44;1.80;;;0.80;;
49223;SDS011;35050;51.316;5.994;2022-09-01T14:44:10;0.70;;;0.70;;
49223;SDS011;35050;51.316;5.994;2022-09-01T14:46:35;0.63;;;0.60;;
49223;SDS011;35050;51.316;5.994;2022-09-01T14:49:01;1.23;;;0.63;;
49223;SDS011;35050;51.316;5.994;2022-09-01T14:51:29;1.02;;;0.68;;
49223;SDS011;35050;51.316;5.994;2022-09-01T14:53:55;2.30;;;0.73;;
49223;SDS011;35050;51.316;5.994;2022-09-01T14:56:22;1.10;;;0.77;;
49223;SDS011;35050;51.316;5.994;2022-09-01T14:58:48;0.60;;;0.60;;
49223;SDS011;35050;51.316;5.994;2022-09-01T15:01:17;1.48;;;0.80;;
49223;SDS011;35050;51.316;5.994;2022-09-01T15:03:49;1.15;;;0.93;;
49223;SDS011;35050;51.316;5.994;2022-09-01T15:06:15;2.15;;;1.00;;
49223;SDS011;35050;51.316;5.994;2022-09-01T15:08:43;1.65;;;0.98;;
49223;SDS011;35050;51.316;5.994;2022-09-01T15:11:09;1.08;;;0.93;;
49223;SDS011;35050;51.316;5.994;2022-09-01T15:13:37;1.40;;;0.82;;
49223;SDS011;35050;51.316;5.994;2022-09-01T15:16:03;3.42;;;0.77;;
49223;SDS011;35050;51.316;5.994;2022-09-01T15:18:36;0.77;;;0.75;;
49223;SDS011;35050;51.316;5.994;2022-09-01T15:21:03;0.80;;;0.60;;
49223;SDS011;35050;51.316;5.994;2022-09-01T15:23:29;1.95;;;0.90;;
49223;SDS011;35050;51.316;5.994;2022-09-01T15:25:54;0.73;;;0.73;;
49223;SDS011;35050;51.316;5.994;2022-09-01T15:28:21;0.60;;;0.60;;
49223;SDS011;35050;51.316;5.994;2022-09-01T15:30:48;0.52;;;0.52;;
49223;SDS011;35050;51.316;5.994;2022-09-01T15:33:15;1.17;;;0.60;;
49223;SDS011;35050;51.316;5.994;2022-09-01T15:35:40;0.50;;;0.50;;
49223;SDS011;35050;51.316;5.994;2022-09-01T15:38:06;0.47;;;0.47;;
49223;SDS011;35050;51.316;5.994;2022-09-01T15:40:32;0.68;;;0.68;;
49223;SDS011;35050;51.316;5.994;2022-09-01T15:42:58;0.65;;;0.60;;
49223;SDS011;35050;51.316;5.994;2022-09-01T15:45:25;0.65;;;0.50;;
49223;SDS011;35050;51.316;5.994;2022-09-01T15:47:52;0.95;;;0.70;;
49223;SDS011;35050;51.316;5.994;2022-09-01T15:50:19;2.17;;;0.65;;
49223;SDS011;35050;51.316;5.994;2022-09-01T15:52:51;1.27;;;0.70;;
49223;SDS011;35050;51.316;5.994;2022-09-01T15:55:29;2.35;;;1.08;;
49223;SDS011;35050;51.316;5.994;2022-09-01T15:58:00;0.77;;;0.77;;
49223;SDS011;35050;51.316;5.994;2022-09-01T16:00:27;1.23;;;0.73;;
49223;SDS011;35050;51.316;5.994;2022-09-01T16:02:53;0.60;;;0.60;;
49223;SDS011;35050;51.316;5.994;2022-09-01T16:05:21;0.60;;;0.60;;
49223;SDS011;35050;51.316;5.994;2022-09-01T16:07:49;2.72;;;0.73;;
49223;SDS011;35050;51.316;5.994;2022-09-01T16:10:16;0.68;;;0.65;;
49223;SDS011;35050;51.316;5.994;2022-09-01T16:12:42;1.23;;;0.77;;
49223;SDS011;35050;51.316;5.994;2022-09-01T16:15:11;0.85;;;0.85;;
49223;SDS011;35050;51.316;5.994;2022-09-01T16:23:26;1.80;;;1.17;;
49223;SDS011;35050;51.316;5.994;2022-09-01T16:26:02;3.40;;;1.08;;
49223;SDS011;35050;51.316;5.994;2022-09-01T16:28:29;0.85;;;0.82;;
49223;SDS011;35050;51.316;5.994;2022-09-01T16:33:35;1.92;;;1.20;;
49223;SDS011;35050;51.316;5.994;2022-09-01T16:36:09;1.98;;;1.40;;
49223;SDS011;35050;51.316;5.994;2022-09-01T16:38:54;2.53;;;1.60;;
49223;SDS011;35050;51.316;5.994;2022-09-01T16:44:12;1.30;;;1.08;;
49223;SDS011;35050;51.316;5.994;2022-09-01T16:46:51;1.10;;;1.00;;
49223;SDS011;35050;51.316;5.994;2022-09-01T16:49:43;1.40;;;1.30;;
49223;SDS011;35050;51.316;5.994;2022-09-01T16:52:28;2.00;;;0.98;;
49223;SDS011;35050;51.316;5.994;2022-09-01T16:55:13;3.45;;;0.90;;